createdAt,value
2017-08-31T00:00:03.215Z,14.6
2017-08-31T00:05:02.558Z,14.6
2017-08-31T00:10:03.030Z,14.5
2017-08-31T00:15:02.446Z,14.5
2017-08-31T00:20:03.030Z,14.3
2017-08-31T00:25:02.463Z,14.3
2017-08-31T00:30:03.069Z,14.3
2017-08-31T00:35:02.438Z,14.1
2017-08-31T00:40:03.036Z,14.3
2017-08-31T00:45:02.478Z,14.3
2017-08-31T00:50:03.042Z,14.3
2017-08-31T00:55:02.425Z,14.3
2017-08-31T01:00:03.168Z,14.3
2017-08-31T01:05:02.567Z,14.3
2017-08-31T01:10:03.266Z,14.1
2017-08-31T01:15:02.804Z,14.0
2017-08-31T01:20:02.420Z,14.1
2017-08-31T01:25:02.884Z,14.1
2017-08-31T01:30:03.316Z,14.0
2017-08-31T01:35:02.763Z,13.8
2017-08-31T01:40:03.264Z,13.8
2017-08-31T01:45:02.616Z,13.6
2017-08-31T01:50:03.322Z,13.6
2017-08-31T01:55:02.899Z,13.6
2017-08-31T02:00:02.605Z,13.6
2017-08-31T02:05:03.062Z,13.6
2017-08-31T02:10:02.678Z,13.6
2017-08-31T02:15:03.177Z,13.6
2017-08-31T02:20:02.736Z,13.6
2017-08-31T02:25:03.179Z,13.6
2017-08-31T02:30:02.715Z,13.6
2017-08-31T02:35:03.277Z,13.5
2017-08-31T02:40:02.723Z,13.6
2017-08-31T02:45:03.180Z,13.6
2017-08-31T02:50:02.802Z,13.6
2017-08-31T02:55:03.224Z,13.6
2017-08-31T03:00:02.752Z,13.6
2017-08-31T03:05:03.222Z,13.6
2017-08-31T03:10:02.681Z,13.6
2017-08-31T03:15:03.245Z,13.6
2017-08-31T03:20:02.659Z,13.6
2017-08-31T03:25:03.071Z,13.6
2017-08-31T03:30:02.463Z,13.6
2017-08-31T03:35:03.075Z,13.8
2017-08-31T03:40:02.557Z,13.8
2017-08-31T03:45:02.953Z,14.0
2017-08-31T03:50:02.390Z,14.1
2017-08-31T03:55:02.805Z,14.1
2017-08-31T04:00:03.250Z,14.3
2017-08-31T04:05:02.651Z,14.3
2017-08-31T04:10:03.250Z,14.3
2017-08-31T04:15:02.800Z,14.3
2017-08-31T04:20:03.231Z,14.3
2017-08-31T04:25:02.775Z,14.3
2017-08-31T04:30:02.670Z,14.3
2017-08-31T04:35:03.167Z,14.3
2017-08-31T04:40:02.623Z,14.1
2017-08-31T04:45:03.292Z,14.3
2017-08-31T04:50:02.805Z,14.3
2017-08-31T04:55:03.276Z,14.1
2017-08-31T05:00:02.851Z,14.1
2017-08-31T05:05:03.286Z,14.0
2017-08-31T05:10:02.731Z,13.6
2017-08-31T05:15:03.249Z,13.6
2017-08-31T05:20:02.706Z,13.5
2017-08-31T05:25:03.280Z,13.5
2017-08-31T05:30:02.682Z,13.5
2017-08-31T05:35:03.241Z,13.6
2017-08-31T05:40:02.765Z,13.6
2017-08-31T05:45:03.271Z,13.6
2017-08-31T05:50:02.865Z,13.5
2017-08-31T05:55:03.302Z,13.5
2017-08-31T06:00:02.697Z,13.5
2017-08-31T06:05:03.129Z,13.6
2017-08-31T06:10:02.679Z,13.6
2017-08-31T06:15:03.379Z,13.6
2017-08-31T06:20:02.763Z,13.6
2017-08-31T06:25:03.312Z,13.6
2017-08-31T06:30:02.771Z,13.6
2017-08-31T06:35:03.321Z,13.6
2017-08-31T06:40:02.870Z,13.6
2017-08-31T06:45:03.339Z,13.6
2017-08-31T06:50:02.817Z,13.6
2017-08-31T06:55:03.380Z,13.6
2017-08-31T07:00:02.870Z,13.8
2017-08-31T07:05:02.386Z,13.6
2017-08-31T07:10:02.992Z,13.6
2017-08-31T07:15:02.447Z,13.6
2017-08-31T07:20:02.911Z,13.6
2017-08-31T07:25:02.481Z,13.8
2017-08-31T07:30:02.904Z,13.6
2017-08-31T07:35:02.415Z,13.5
2017-08-31T07:40:02.902Z,13.5
2017-08-31T07:45:03.342Z,13.6
2017-08-31T07:50:02.750Z,13.5
2017-08-31T07:55:03.362Z,13.6
2017-08-31T08:00:02.785Z,13.5
2017-08-31T08:05:03.252Z,13.5
2017-08-31T08:10:02.886Z,13.3
2017-08-31T08:15:03.368Z,13.6
2017-08-31T08:20:03.004Z,13.8
2017-08-31T08:25:02.584Z,13.6
2017-08-31T08:30:03.192Z,13.6
2017-08-31T08:35:02.610Z,13.8
2017-08-31T08:40:03.130Z,14.1
2017-08-31T08:45:02.663Z,14.0
2017-08-31T08:50:03.204Z,13.8
2017-08-31T08:55:02.679Z,14.3
2017-08-31T09:00:03.156Z,14.3
2017-08-31T09:05:02.607Z,14.1
2017-08-31T09:10:03.214Z,14.0
2017-08-31T09:15:02.626Z,14.0
2017-08-31T09:20:03.076Z,14.3
2017-08-31T09:25:02.541Z,14.3
2017-08-31T09:30:03.057Z,14.1
2017-08-31T09:35:02.513Z,14.5
2017-08-31T09:40:02.982Z,14.3
2017-08-31T09:45:02.394Z,14.0
2017-08-31T09:50:02.942Z,14.1
2017-08-31T09:55:02.406Z,14.3
2017-08-31T10:00:02.796Z,14.6
2017-08-31T10:05:02.429Z,15.5
2017-08-31T10:10:02.954Z,15.0
2017-08-31T10:15:02.517Z,15.0
2017-08-31T10:20:03.058Z,15.6
2017-08-31T10:25:02.419Z,17.1
2017-08-31T10:30:02.984Z,17.3
2017-08-31T10:35:02.533Z,17.3
2017-08-31T10:40:03.114Z,17.3
2017-08-31T10:45:02.680Z,18.2
2017-08-31T10:50:03.153Z,20.0
2017-08-31T10:55:02.680Z,20.1
2017-08-31T11:00:03.260Z,20.0
2017-08-31T11:05:02.649Z,19.1
2017-08-31T11:10:03.190Z,18.2
2017-08-31T11:20:03.213Z,18.5
2017-08-31T11:25:02.743Z,18.2
2017-08-31T11:30:03.164Z,18.8
2017-08-31T11:35:03.410Z,19.0
2017-08-31T11:40:02.682Z,19.2
2017-08-31T11:50:02.849Z,18.2
2017-08-31T11:55:02.511Z,17.5
2017-08-31T12:00:02.979Z,17.1
2017-08-31T12:05:02.620Z,16.7
2017-08-31T12:10:03.203Z,16.2
2017-08-31T12:15:02.762Z,15.8
2017-08-31T12:20:02.433Z,15.8
2017-08-31T12:25:02.978Z,15.6
2017-08-31T12:30:02.411Z,14.8
2017-08-31T12:35:03.113Z,14.8
2017-08-31T12:40:02.705Z,15.1
2017-08-31T12:45:03.278Z,15.6
2017-08-31T12:50:02.827Z,16.2
2017-08-31T12:55:02.372Z,16.7
2017-08-31T13:00:02.840Z,17.8
2017-08-31T13:05:02.478Z,17.8
2017-08-31T13:10:02.997Z,17.7
2017-08-31T13:15:02.589Z,17.7
2017-08-31T13:20:03.185Z,18.2
2017-08-31T13:25:02.733Z,20.0
2017-08-31T13:30:03.164Z,19.0
2017-08-31T13:35:02.593Z,18.7
2017-08-31T13:40:03.209Z,18.7
2017-08-31T13:45:02.606Z,18.1
2017-08-31T13:50:03.138Z,17.8
2017-08-31T13:55:02.655Z,17.8
2017-08-31T14:00:03.236Z,18.2
2017-08-31T14:05:02.627Z,18.2
2017-08-31T14:10:03.243Z,18.8
2017-08-31T14:15:02.888Z,21.2
2017-08-31T14:20:03.370Z,21.0
2017-08-31T14:25:02.993Z,20.8
2017-08-31T14:30:02.405Z,21.2
2017-08-31T14:35:03.061Z,20.3
2017-08-31T14:40:02.652Z,20.2
2017-08-31T14:45:03.183Z,21.2
2017-08-31T14:50:02.758Z,20.0
2017-08-31T14:55:03.323Z,20.3
2017-08-31T15:00:02.761Z,21.5
2017-08-31T15:05:03.340Z,21.8
2017-08-31T15:10:02.831Z,19.7
2017-08-31T15:15:03.260Z,19.1
2017-08-31T15:20:02.699Z,19.7
2017-08-31T15:25:03.200Z,21.2
2017-08-31T15:30:02.718Z,21.2
2017-08-31T15:35:03.175Z,21.8
2017-08-31T15:40:02.647Z,21.2
2017-08-31T15:45:03.220Z,19.7
2017-08-31T15:50:02.790Z,19.0
2017-08-31T15:55:03.237Z,18.8
2017-08-31T16:00:02.894Z,18.7
2017-08-31T16:05:02.389Z,18.7
2017-08-31T16:10:03.035Z,18.5
2017-08-31T16:15:02.715Z,18.2
2017-08-31T16:20:03.196Z,18.5
2017-08-31T16:25:02.768Z,18.5
2017-08-31T16:30:03.239Z,18.5
2017-08-31T16:35:02.904Z,18.2
2017-08-31T16:40:03.320Z,18.5
2017-08-31T16:45:02.762Z,18.2
2017-08-31T16:50:03.286Z,18.2
2017-08-31T16:55:02.829Z,18.6
2017-08-31T17:00:02.446Z,19.0
2017-08-31T17:05:03.081Z,20.2
2017-08-31T17:10:02.545Z,21.0
2017-08-31T17:15:03.112Z,20.2
2017-08-31T17:20:02.555Z,20.6
2017-08-31T17:25:02.989Z,20.2
2017-08-31T17:30:02.393Z,20.2
2017-08-31T17:35:02.865Z,20.0
2017-08-31T17:40:02.488Z,18.8
2017-08-31T17:45:03.083Z,17.8
2017-08-31T17:50:02.594Z,17.3
2017-08-31T17:55:03.063Z,17.1
2017-08-31T18:00:02.428Z,17.0
2017-08-31T18:05:03.048Z,16.7
2017-08-31T18:10:02.494Z,16.3
2017-08-31T18:15:02.950Z,16.2
2017-08-31T18:20:02.486Z,16.0
2017-08-31T18:25:02.911Z,15.8
2017-08-31T18:30:03.370Z,15.6
2017-08-31T18:35:02.839Z,15.6
2017-08-31T18:40:03.321Z,15.1
2017-08-31T18:45:02.885Z,15.1
2017-08-31T18:50:03.365Z,14.8
2017-08-31T18:55:02.946Z,14.5
2017-08-31T19:00:02.462Z,14.5
2017-08-31T19:05:03.033Z,14.5
2017-08-31T19:10:02.703Z,14.5
2017-08-31T19:15:03.370Z,14.3
2017-08-31T19:20:02.787Z,14.3
2017-08-31T19:25:02.447Z,14.1
2017-08-31T19:30:02.875Z,14.0
2017-08-31T19:35:03.341Z,14.0
2017-08-31T19:40:02.835Z,13.6
2017-08-31T19:45:02.337Z,13.6
2017-08-31T19:50:02.883Z,13.6
2017-08-31T19:55:02.493Z,13.6
2017-08-31T20:00:02.963Z,13.5
2017-08-31T20:05:02.637Z,13.3
2017-08-31T20:10:03.146Z,13.3
2017-08-31T20:15:02.871Z,13.3
2017-08-31T20:20:02.509Z,13.3
2017-08-31T20:25:02.975Z,13.1
2017-08-31T20:30:02.553Z,13.3
2017-08-31T20:35:03.229Z,13.1
2017-08-31T20:40:02.733Z,13.1
2017-08-31T20:45:03.206Z,13.1
2017-08-31T20:50:02.644Z,12.8
2017-08-31T20:55:03.074Z,12.8
2017-08-31T21:00:02.470Z,13.1
2017-08-31T21:05:03.055Z,12.8
2017-08-31T21:10:02.710Z,12.8
2017-08-31T21:15:03.305Z,12.8
2017-08-31T21:20:02.842Z,12.5
2017-08-31T21:25:03.368Z,12.6
2017-08-31T21:30:02.905Z,12.5
2017-08-31T21:35:02.550Z,12.3
2017-08-31T21:40:03.017Z,12.1
2017-08-31T21:45:02.684Z,12.1
2017-08-31T21:50:03.221Z,12.1
2017-08-31T21:55:02.814Z,12.1
2017-08-31T22:00:02.411Z,12.0
2017-08-31T22:05:03.287Z,12.1
2017-08-31T22:10:02.870Z,12.0
2017-08-31T22:15:02.423Z,11.8
2017-08-31T22:20:02.871Z,12.0
2017-08-31T22:25:02.516Z,11.8
2017-08-31T22:30:02.976Z,11.8
2017-08-31T22:35:02.887Z,11.6
2017-08-31T22:40:02.393Z,11.6
2017-08-31T22:45:02.948Z,11.8
2017-08-31T22:50:02.603Z,11.8
2017-08-31T22:55:03.183Z,12.1
2017-08-31T23:00:03.286Z,12.1
2017-08-31T23:05:03.011Z,12.1
2017-08-31T23:10:02.690Z,12.1
2017-08-31T23:15:03.108Z,12.1
2017-08-31T23:20:02.669Z,12.1
2017-08-31T23:25:03.288Z,12.1
2017-08-31T23:30:02.889Z,12.1
2017-08-31T23:35:02.465Z,12.1
2017-08-31T23:40:03.036Z,12.1
2017-08-31T23:45:02.419Z,12.1
2017-08-31T23:50:03.058Z,12.1
2017-08-31T23:55:02.659Z,12.0
